Time;durP1;ratioP1;P1;durP2;ratioP2;P2;SDS_P1;SDS_P2;PMS_P1;PMS_P2;Temp;Humidity;BMP_temperature;BMP_pressure;BME280_temperature;BME280_humidity;BME280_pressure;Samples;Min_cycle;Max_cycle;Signal;HPM_P1;HPM_P2
2021/09/21 00:01:00;;;;;;;54.30;10.32;;;;;19.80;100189.00;;;;5065336;28;20052;-78
2021/09/21 00:03:30;;;;;;;39.42;9.75;;;;;19.80;100201.00;;;;5064218;28;20064;-76
2021/09/21 00:06:01;;;;;;;14.25;4.85;;;;;19.90;100177.00;;;;5066234;28;20070;-77
2021/09/21 00:08:31;;;;;;;2.13;1.20;;;;;19.80;100191.00;;;;5065854;28;20329;-78
2021/09/21 00:11:02;;;;;;;17.75;5.68;;;;;19.80;100191.00;;;;5065710;28;20055;-80
2021/09/21 00:13:34;;;;;;;17.60;5.55;;;;;19.80;100206.00;;;;5064666;28;20052;-78
2021/09/21 00:16:05;;;;;;;88.25;34.90;;;;;19.80;100194.00;;;;5065963;28;20041;-79
2021/09/21 00:18:35;;;;;;;22.42;5.82;;;;;19.80;100163.00;;;;5065529;28;20558;-79
2021/09/21 00:21:04;;;;;;;134.75;19.73;;;;;19.80;100162.00;;;;5064899;28;20036;-79
2021/09/21 00:23:34;;;;;;;317.98;89.88;;;;;19.80;100162.00;;;;5063748;28;20350;-77
2021/09/21 00:26:03;;;;;;;90.13;14.20;;;;;19.80;100172.00;;;;5065192;28;20040;-78
2021/09/21 00:28:34;;;;;;;88.65;18.63;;;;;19.80;100170.00;;;;5066914;28;20052;-79
2021/09/21 00:31:10;;;;;;;81.43;17.65;;;;;19.80;100164.00;;;;5066427;28;20045;-79
2021/09/21 00:33:48;;;;;;;72.68;12.38;;;;;19.80;100169.00;;;;5065718;28;20040;-81
2021/09/21 00:36:19;;;;;;;57.63;30.73;;;;;19.80;100177.00;;;;5064296;28;20048;-80
2021/09/21 00:38:48;;;;;;;889.65;89.63;;;;;19.80;100186.00;;;;5069801;28;20119;-80
2021/09/21 00:41:18;;;;;;;126.97;20.42;;;;;19.80;100211.00;;;;5067886;28;20044;-79
2021/09/21 00:43:47;;;;;;;69.38;11.75;;;;;19.80;100205.00;;;;5072885;28;20469;-80
2021/09/21 00:46:17;;;;;;;496.42;69.43;;;;;19.80;100216.00;;;;5073693;28;20083;-79
2021/09/21 00:48:46;;;;;;;136.38;21.80;;;;;19.70;100229.00;;;;5069476;28;20048;-79
2021/09/21 00:51:16;;;;;;;123.90;22.88;;;;;19.70;100224.00;;;;5069777;28;20052;-77
2021/09/21 00:53:45;;;;;;;84.72;26.50;;;;;19.80;100205.00;;;;5069056;28;20033;-76
2021/09/21 00:56:15;;;;;;;110.57;23.92;;;;;19.80;100181.00;;;;5068873;28;20064;-78
2021/09/21 00:58:45;;;;;;;69.30;20.92;;;;;19.80;100172.00;;;;5067085;28;20135;-77
2021/09/21 01:01:14;;;;;;;3.50;2.53;;;;;19.80;100152.00;;;;5068786;28;20074;-79
2021/09/21 01:03:44;;;;;;;17.15;6.47;;;;;19.90;100154.00;;;;5068568;28;20530;-80
2021/09/21 01:06:13;;;;;;;20.48;6.05;;;;;19.90;100151.00;;;;5067313;28;20041;-77
2021/09/21 01:08:43;;;;;;;41.30;9.25;;;;;19.80;100166.00;;;;5068294;28;20139;-77
2021/09/21 01:11:13;;;;;;;23.48;6.85;;;;;19.90;100195.00;;;;5069017;28;20060;-79
2021/09/21 01:13:43;;;;;;;69.93;22.52;;;;;19.90;100222.00;;;;5069270;28;20407;-79
2021/09/21 01:16:12;;;;;;;90.30;17.70;;;;;19.90;100211.00;;;;5067486;28;20037;-80
2021/09/21 01:18:42;;;;;;;101.38;23.85;;;;;19.90;100232.00;;;;5068820;28;20048;-78
2021/09/21 01:21:13;;;;;;;104.72;25.60;;;;;19.90;100248.00;;;;5066528;28;20053;-79
2021/09/21 01:23:55;;;;;;;47.08;12.13;;;;;19.90;100273.00;;;;5069222;28;20042;-80
2021/09/21 01:26:25;;;;;;;42.50;12.18;;;;;19.90;100296.00;;;;5067569;28;20211;-80
2021/09/21 01:28:54;;;;;;;61.38;16.40;;;;;20.00;100300.00;;;;5067677;28;20637;-79
2021/09/21 01:31:24;;;;;;;69.80;37.40;;;;;20.00;100295.00;;;;5066939;28;20435;-78
2021/09/21 01:33:54;;;;;;;3.00;1.92;;;;;20.10;100290.00;;;;5067160;28;20048;-79
2021/09/21 01:36:25;;;;;;;155.02;27.00;;;;;20.10;100294.00;;;;5068917;28;20080;-78
2021/09/21 01:38:55;;;;;;;16.33;9.15;;;;;20.10;100289.00;;;;5068358;28;20053;-77
2021/09/21 01:41:24;;;;;;;1355.68;534.33;;;;;20.10;100255.00;;;;5068099;28;20060;-77
2021/09/21 01:43:54;;;;;;;70.82;36.42;;;;;20.10;100267.00;;;;5067779;28;20438;-77
2021/09/21 01:46:24;;;;;;;80.25;34.67;;;;;20.10;100268.00;;;;5067489;28;20519;-77
2021/09/21 01:48:54;;;;;;;105.22;39.63;;;;;20.10;100240.00;;;;5068010;28;20106;-77
2021/09/21 01:51:39;;;;;;;83.07;42.92;;;;;20.10;100248.00;;;;5067738;28;20131;-78
2021/09/21 01:59:44;;;;;;;74.65;57.53;;;;;20.10;100288.00;;;;5068915;28;20064;-79
2021/09/21 02:02:13;;;;;;;276.23;103.30;;;;;20.00;100295.00;;;;5067684;28;20048;-77
2021/09/21 02:04:43;;;;;;;27.27;12.05;;;;;20.10;100306.00;;;;5067854;28;20040;-78
2021/09/21 02:07:12;;;;;;;49.97;22.77;;;;;20.10;100315.00;;;;5067345;28;20037;-80
2021/09/21 02:09:42;;;;;;;99.68;66.50;;;;;20.10;100357.00;;;;5067972;28;20514;-78
2021/09/21 02:12:13;;;;;;;6.43;5.60;;;;;20.20;100357.00;;;;5067775;28;20045;-77
2021/09/21 02:14:42;;;;;;;32.77;18.73;;;;;20.20;100353.00;;;;5067613;28;20044;-77
2021/09/21 02:17:12;;;;;;;1523.20;765.25;;;;;20.20;100376.00;;;;5067487;28;20040;-77
2021/09/21 02:19:41;;;;;;;54.45;21.63;;;;;20.20;100390.00;;;;5067040;28;20040;-77
2021/09/21 02:22:11;;;;;;;69.45;26.25;;;;;20.20;100397.00;;;;5067861;28;20423;-77
2021/09/21 02:24:40;;;;;;;31.35;11.52;;;;;20.20;100396.00;;;;5067887;28;20048;-80
2021/09/21 02:27:09;;;;;;;1.95;1.10;;;;;20.10;100428.00;;;;5067375;28;20072;-76
2021/09/21 02:29:39;;;;;;;139.63;55.97;;;;;20.10;100427.00;;;;5067309;28;20048;-80
2021/09/21 02:32:08;;;;;;;34.03;20.75;;;;;20.10;100416.00;;;;5066914;28;20115;-76
2021/09/21 02:34:40;;;;;;;1999.90;999.90;;;;;20.10;100406.00;;;;5067251;28;20131;-76
2021/09/21 02:37:10;;;;;;;51.65;26.23;;;;;20.10;100386.00;;;;5067093;28;20045;-78
2021/09/21 02:39:39;;;;;;;75.78;29.23;;;;;20.10;100375.00;;;;5067060;28;20040;-79
2021/09/21 02:42:09;;;;;;;29.05;10.65;;;;;20.00;100365.00;;;;5067229;28;20048;-78
2021/09/21 02:44:39;;;;;;;15.70;8.13;;;;;20.00;100404.00;;;;5066656;28;20079;-79
2021/09/21 02:47:08;;;;;;;31.27;13.02;;;;;20.10;100410.00;;;;5068114;28;20525;-79
2021/09/21 02:49:38;;;;;;;30.90;13.98;;;;;20.10;100396.00;;;;5066957;28;20049;-76
2021/09/21 02:52:07;;;;;;;185.77;112.32;;;;;20.10;100370.00;;;;5066931;28;20037;-77
2021/09/21 02:54:37;;;;;;;30.58;12.57;;;;;20.10;100377.00;;;;5067263;28;20552;-79
2021/09/21 02:57:06;;;;;;;28.38;13.90;;;;;20.10;100378.00;;;;5066898;28;20110;-78
2021/09/21 02:59:35;;;;;;;19.42;16.90;;;;;20.10;100381.00;;;;5067135;28;20049;-76
2021/09/21 03:02:05;;;;;;;1.02;0.60;;;;;20.10;100361.00;;;;5067279;28;20059;-82
2021/09/21 03:04:41;;;;;;;18.10;16.05;;;;;20.10;100383.00;;;;5065366;28;20047;-78
2021/09/21 03:07:15;;;;;;;15.77;10.05;;;;;20.00;100402.00;;;;5064524;28;20051;-80
2021/09/21 03:17:51;;;;;;;11.65;7.95;;;;;19.70;100387.00;;;;5023504;28;20045;-77
2021/09/21 03:20:21;;;;;;;6.10;4.03;;;;;19.60;100341.00;;;;5023924;28;20117;-78
2021/09/21 03:22:51;;;;;;;0.98;0.95;;;;;19.50;100357.00;;;;5036540;28;20514;-82
2021/09/21 03:25:21;;;;;;;236.00;86.53;;;;;19.40;100374.00;;;;5067176;28;20048;-82
2021/09/21 03:27:51;;;;;;;10.00;7.68;;;;;19.30;100392.00;;;;5065842;28;20576;-79
2021/09/21 03:30:21;;;;;;;1.35;1.25;;;;;19.20;100383.00;;;;5066630;28;20082;-82
2021/09/21 03:32:50;;;;;;;2.90;1.73;;;;;19.10;100398.00;;;;5066724;28;20044;-78
2021/09/21 03:35:20;;;;;;;1.70;1.10;;;;;19.10;100383.00;;;;5066557;28;20047;-78
2021/09/21 03:37:50;;;;;;;83.63;74.40;;;;;19.00;100378.00;;;;5066069;28;20048;-77
2021/09/21 03:40:20;;;;;;;4.88;3.47;;;;;19.00;100384.00;;;;5065007;28;20415;-80
2021/09/21 03:42:50;;;;;;;2.00;0.90;;;;;18.90;100385.00;;;;5063930;28;20052;-78
2021/09/21 03:45:21;;;;;;;3.58;2.20;;;;;18.90;100365.00;;;;5066079;28;20053;-79
2021/09/21 03:47:52;;;;;;;3.75;1.80;;;;;18.90;100360.00;;;;5066267;28;20048;-80
2021/09/21 03:50:22;;;;;;;11.77;2.67;;;;;18.80;100358.00;;;;5064326;28;20045;-82
2021/09/21 03:52:52;;;;;;;45.22;17.77;;;;;18.80;100378.00;;;;5066138;28;20056;-81
2021/09/21 03:55:23;;;;;;;4.82;2.10;;;;;18.80;100393.00;;;;5066325;28;20051;-81
2021/09/21 03:57:53;;;;;;;5.68;4.95;;;;;18.80;100390.00;;;;5048687;28;20067;-80
2021/09/21 04:00:23;;;;;;;795.85;167.50;;;;;18.80;100392.00;;;;5065934;28;20440;-81
2021/09/21 04:02:53;;;;;;;2.22;2.13;;;;;18.80;100400.00;;;;5065855;28;20039;-81
2021/09/21 04:05:23;;;;;;;3.95;2.47;;;;;18.80;100394.00;;;;5066151;28;20098;-80
2021/09/21 04:07:53;;;;;;;0.77;0.57;;;;;18.80;100397.00;;;;5064035;28;20124;-79
2021/09/21 04:10:22;;;;;;;9.00;1.55;;;;;18.80;100408.00;;;;5064622;28;20044;-77
2021/09/21 04:12:52;;;;;;;1.55;1.27;;;;;18.80;100402.00;;;;5065526;28;20111;-80
2021/09/21 04:15:22;;;;;;;4.30;0.95;;;;;18.80;100407.00;;;;5066079;28;20041;-81
2021/09/21 04:17:51;;;;;;;62.90;46.97;;;;;18.70;100409.00;;;;5068735;28;20427;-78
2021/09/21 04:20:21;;;;;;;0.30;0.30;;;;;18.70;100416.00;;;;5070110;28;20051;-79
2021/09/21 04:22:52;;;;;;;124.60;24.92;;;;;18.80;100418.00;;;;5071316;28;20090;-78
2021/09/21 04:25:22;;;;;;;487.08;81.88;;;;;18.70;100419.00;;;;5069580;28;20036;-79
2021/09/21 04:27:51;;;;;;;81.13;6.57;;;;;18.80;100416.00;;;;5069640;28;20083;-81
2021/09/21 04:30:22;;;;;;;124.30;7.95;;;;;18.80;100420.00;;;;5069835;28;20669;-82
2021/09/21 04:32:52;;;;;;;5.95;1.52;;;;;18.70;100436.00;;;;5067366;28;20056;-77
2021/09/21 04:35:22;;;;;;;4.88;1.38;;;;;18.80;100427.00;;;;5069637;28;20403;-82
2021/09/21 04:37:52;;;;;;;3.25;1.15;;;;;18.70;100397.00;;;;5069426;28;20055;-79
2021/09/21 04:40:21;;;;;;;1.63;1.00;;;;;18.70;100424.00;;;;5069744;28;20450;-81
2021/09/21 04:42:50;;;;;;;1.80;1.17;;;;;18.70;100417.00;;;;5069409;28;20040;-79
2021/09/21 04:45:20;;;;;;;3.53;1.42;;;;;18.60;100428.00;;;;5067548;28;20044;-80
2021/09/21 04:47:49;;;;;;;1.85;0.90;;;;;18.60;100435.00;;;;5069781;28;20148;-77
2021/09/21 04:50:19;;;;;;;0.82;0.60;;;;;18.50;100433.00;;;;5068911;28;20048;-81
2021/09/21 04:52:48;;;;;;;1.20;0.47;;;;;18.40;100420.00;;;;5069170;28;20504;-79
2021/09/21 04:55:17;;;;;;;2.72;0.90;;;;;18.40;100443.00;;;;5069062;28;20051;-83
2021/09/21 04:57:47;;;;;;;1.85;0.85;;;;;18.30;100449.00;;;;5068646;28;20127;-81
2021/09/21 05:00:18;;;;;;;2.60;2.35;;;;;18.30;100438.00;;;;5068887;28;20071;-78
2021/09/21 05:02:47;;;;;;;1.35;1.00;;;;;18.10;100460.00;;;;5069744;28;20045;-81
2021/09/21 05:05:18;;;;;;;3.90;1.10;;;;;18.00;100438.00;;;;5069723;28;20481;-80
2021/09/21 05:07:48;;;;;;;1.50;1.15;;;;;17.80;100456.00;;;;5068928;28;20064;-82
2021/09/21 05:10:17;;;;;;;5.65;1.55;;;;;17.70;100438.00;;;;5069105;28;20076;-82
2021/09/21 05:12:47;;;;;;;6.35;1.60;;;;;17.60;100447.00;;;;5068593;28;20076;-84
2021/09/21 05:15:16;;;;;;;3.80;1.40;;;;;17.60;100444.00;;;;5069132;28;20072;-80
2021/09/21 05:17:46;;;;;;;5.03;1.65;;;;;17.60;100452.00;;;;5067356;28;20052;-81
2021/09/21 05:20:15;;;;;;;1.02;1.00;;;;;17.50;100462.00;;;;5067606;28;20045;-80
2021/09/21 05:22:52;;;;;;;9.65;1.40;;;;;17.60;100465.00;;;;5068188;28;20036;-78
2021/09/21 05:25:22;;;;;;;7.30;1.50;;;;;17.50;100449.00;;;;5067277;28;20049;-79
2021/09/21 05:27:52;;;;;;;1.85;1.60;;;;;17.50;100470.00;;;;5068342;28;20499;-78
2021/09/21 05:30:21;;;;;;;2.83;1.90;;;;;17.50;100450.00;;;;5068233;28;20048;-78
2021/09/21 05:32:51;;;;;;;4.07;1.83;;;;;17.60;100472.00;;;;5067084;28;20122;-80
2021/09/21 05:35:20;;;;;;;3.90;1.73;;;;;17.60;100465.00;;;;5067758;28;20047;-81
2021/09/21 05:37:50;;;;;;;2.78;1.52;;;;;17.60;100449.00;;;;5068706;28;20048;-80
2021/09/21 05:40:19;;;;;;;4.53;1.23;;;;;17.60;100489.00;;;;5068739;28;20071;-81
2021/09/21 05:42:48;;;;;;;4.18;3.88;;;;;17.60;100466.00;;;;5067718;28;20056;-79
2021/09/21 05:45:18;;;;;;;1.80;0.90;;;;;17.60;100476.00;;;;5067928;28;20043;-80
2021/09/21 05:47:48;;;;;;;2.03;0.65;;;;;17.60;100488.00;;;;5066963;28;20048;-79
2021/09/21 05:50:17;;;;;;;4.38;1.42;;;;;17.60;100466.00;;;;5068667;28;20482;-81
2021/09/21 05:52:47;;;;;;;6.20;1.40;;;;;17.60;100479.00;;;;5068267;28;20052;-80
2021/09/21 05:55:16;;;;;;;3.08;2.35;;;;;17.50;100468.00;;;;5068484;28;20047;-79
2021/09/21 05:57:46;;;;;;;2.47;1.30;;;;;17.50;100466.00;;;;5066937;28;20522;-76
2021/09/21 06:00:16;;;;;;;1.48;0.82;;;;;17.50;100466.00;;;;5067682;28;20074;-81
2021/09/21 06:02:46;;;;;;;1.90;1.00;;;;;17.50;100467.00;;;;5067597;28;20086;-78
2021/09/21 06:05:16;;;;;;;1.58;0.63;;;;;17.50;100462.00;;;;5067631;28;20533;-81
2021/09/21 06:07:50;;;;;;;3.50;1.00;;;;;17.50;100465.00;;;;5067925;28;20045;-81
2021/09/21 06:10:21;;;;;;;0.60;0.50;;;;;17.50;100464.00;;;;5068027;28;20049;-79
2021/09/21 06:12:55;;;;;;;2.97;0.70;;;;;17.50;100494.00;;;;5067210;28;20054;-81
2021/09/21 06:15:24;;;;;;;0.68;0.60;;;;;17.40;100482.00;;;;5068271;28;20049;-81
2021/09/21 06:17:54;;;;;;;0.15;0.10;;;;;17.30;100489.00;;;;5068156;28;20055;-79
2021/09/21 06:20:23;;;;;;;2.20;0.77;;;;;17.30;100494.00;;;;5067681;28;20075;-78
2021/09/21 06:22:53;;;;;;;1.60;0.90;;;;;17.30;100522.00;;;;5067460;28;20048;-83
2021/09/21 06:25:22;;;;;;;2.13;0.70;;;;;17.30;100517.00;;;;5066923;28;20127;-79
2021/09/21 06:27:52;;;;;;;2.28;0.75;;;;;17.30;100543.00;;;;5067156;28;20491;-78
2021/09/21 06:30:21;;;;;;;3.67;0.90;;;;;17.30;100543.00;;;;5065602;28;20055;-79
2021/09/21 06:32:51;;;;;;;1.60;0.90;;;;;17.20;100547.00;;;;5067338;28;20051;-79
2021/09/21 06:35:20;;;;;;;1.23;0.82;;;;;17.30;100559.00;;;;5067131;28;20894;-78
2021/09/21 06:37:50;;;;;;;1.45;0.85;;;;;17.30;100581.00;;;;5067108;28;20048;-78
2021/09/21 06:40:19;;;;;;;7.72;0.80;;;;;17.30;100573.00;;;;5067119;28;20059;-79
2021/09/21 06:42:50;;;;;;;1.67;0.80;;;;;17.30;100579.00;;;;5067076;28;20048;-79
2021/09/21 06:45:20;;;;;;;2.70;0.88;;;;;17.30;100579.00;;;;5065587;28;20064;-78
2021/09/21 06:47:49;;;;;;;3.33;1.00;;;;;17.20;100573.00;;;;5066866;28;20067;-80
2021/09/21 06:50:19;;;;;;;1.20;0.50;;;;;17.20;100571.00;;;;5066389;28;20180;-80
2021/09/21 06:52:49;;;;;;;2.53;0.68;;;;;17.10;100589.00;;;;5066880;28;20453;-80
2021/09/21 06:55:19;;;;;;;2.25;1.65;;;;;17.20;100572.00;;;;5067067;28;20049;-81
2021/09/21 06:57:53;;;;;;;2.72;0.80;;;;;17.20;100559.00;;;;5066551;28;20048;-80
2021/09/21 07:00:24;;;;;;;14.10;8.27;;;;;17.20;100573.00;;;;5067096;28;20102;-79
2021/09/21 07:02:54;;;;;;;0.73;0.52;;;;;17.20;100560.00;;;;5066379;28;20048;-76
2021/09/21 07:05:24;;;;;;;0.90;0.65;;;;;17.20;100575.00;;;;5066605;28;20573;-79
2021/09/21 07:07:53;;;;;;;1.63;0.52;;;;;17.20;100577.00;;;;5067032;28;20142;-80
2021/09/21 07:10:23;;;;;;;2.38;1.10;;;;;17.20;100589.00;;;;5065284;28;20048;-78
2021/09/21 07:12:54;;;;;;;5.88;1.10;;;;;17.20;100604.00;;;;5066509;28;20048;-80
2021/09/21 07:15:24;;;;;;;4.20;1.20;;;;;17.20;100615.00;;;;5064683;28;20056;-78
2021/09/21 07:17:55;;;;;;;2.67;0.80;;;;;17.20;100610.00;;;;5066183;28;20292;-78
2021/09/21 07:20:27;;;;;;;3.80;1.10;;;;;17.20;100616.00;;;;5065634;28;20088;-80
2021/09/21 07:22:56;;;;;;;1.58;0.60;;;;;17.10;100615.00;;;;5067416;28;20069;-79
2021/09/21 07:25:27;;;;;;;1.35;0.95;;;;;17.10;100608.00;;;;5065028;28;20064;-81
2021/09/21 07:27:57;;;;;;;;;;;;;17.20;100634.00;;;;5066515;28;20053;-81
2021/09/21 07:30:27;;;;;;;6.50;1.45;;;;;17.10;100627.00;;;;5066499;28;19920;-81
2021/09/21 07:32:56;;;;;;;10.43;9.65;;;;;17.10;100615.00;;;;5065169;28;20056;-80
2021/09/21 07:35:27;;;;;;;1.77;1.67;;;;;17.10;100607.00;;;;5065050;28;20080;-78
2021/09/21 07:37:56;;;;;;;3.28;1.02;;;;;17.00;100609.00;;;;5066367;28;20430;-78
2021/09/21 07:40:30;;;;;;;5.35;4.88;;;;;17.00;100600.00;;;;5065822;28;20040;-78
2021/09/21 07:43:00;;;;;;;99.78;89.47;;;;;17.00;100605.00;;;;5066145;28;20525;-80
2021/09/21 07:45:29;;;;;;;1.80;0.80;;;;;16.90;100616.00;;;;5066190;28;20052;-78
2021/09/21 07:47:59;;;;;;;34.20;10.32;;;;;16.90;100629.00;;;;5066764;28;20097;-79
2021/09/21 07:50:29;;;;;;;3.45;1.20;;;;;16.90;100635.00;;;;5066417;28;20044;-78
2021/09/21 07:52:58;;;;;;;6.40;1.30;;;;;16.80;100639.00;;;;5063368;28;20410;-81
2021/09/21 07:55:29;;;;;;;4.78;1.40;;;;;16.80;100627.00;;;;5066567;28;20044;-79
2021/09/21 07:57:58;;;;;;;12.57;1.48;;;;;16.70;100659.00;;;;5066243;28;20045;-77
2021/09/21 08:00:28;;;;;;;9.50;1.90;;;;;16.70;100649.00;;;;5065765;28;20051;-76
2021/09/21 08:02:58;;;;;;;8.30;1.90;;;;;16.60;100678.00;;;;5066150;28;20044;-79
2021/09/21 08:05:28;;;;;;;13.05;3.42;;;;;16.50;100676.00;;;;5065277;28;20040;-81
2021/09/21 08:07:57;;;;;;;6.57;2.83;;;;;16.50;100662.00;;;;5065223;28;20358;-76
2021/09/21 08:10:28;;;;;;;6.55;1.88;;;;;16.50;100676.00;;;;5066404;28;20500;-81
2021/09/21 08:12:58;;;;;;;4.35;1.30;;;;;16.40;100681.00;;;;5066413;28;20714;-80
2021/09/21 08:15:30;;;;;;;10.98;2.05;;;;;16.40;100699.00;;;;5064966;28;20097;-79
2021/09/21 08:18:01;;;;;;;9.30;2.03;;;;;16.40;100704.00;;;;5064054;28;20131;-77
2021/09/21 08:20:31;;;;;;;7.07;1.88;;;;;16.40;100694.00;;;;5063980;28;20139;-80
2021/09/21 08:23:00;;;;;;;6.35;5.53;;;;;16.30;100693.00;;;;5065152;28;20127;-77
2021/09/21 08:25:30;;;;;;;2.05;0.55;;;;;16.30;100705.00;;;;5064692;28;20045;-80
2021/09/21 08:27:59;;;;;;;0.00;0.00;;;;;16.30;100703.00;;;;5065690;28;20580;-78
2021/09/21 08:30:31;;;;;;;2.53;2.42;;;;;16.20;100721.00;;;;5064826;28;20041;-76
2021/09/21 08:33:01;;;;;;;0.63;0.40;;;;;16.20;100705.00;;;;5064991;28;20048;-76
2021/09/21 08:35:32;;;;;;;0.00;0.00;;;;;16.20;100712.00;;;;5066595;28;20064;-81
2021/09/21 08:38:03;;;;;;;1.00;1.00;;;;;16.20;100714.00;;;;5065492;28;20044;-78
2021/09/21 08:40:33;;;;;;;0.20;0.20;;;;;16.20;100717.00;;;;5065451;28;20132;-78
2021/09/21 08:43:04;;;;;;;0.25;0.25;;;;;16.10;100737.00;;;;5065228;28;20044;-77
2021/09/21 08:45:34;;;;;;;0.40;0.40;;;;;16.20;100734.00;;;;5066220;28;20037;-78
2021/09/21 08:48:04;;;;;;;0.25;0.25;;;;;16.20;100746.00;;;;5065936;28;20041;-77
2021/09/21 08:50:34;;;;;;;0.30;0.30;;;;;16.10;100735.00;;;;5066539;28;20045;-76
2021/09/21 08:53:04;;;;;;;0.50;0.30;;;;;16.10;100738.00;;;;5065691;28;20143;-77
2021/09/21 08:55:34;;;;;;;0.70;0.40;;;;;16.10;100741.00;;;;5065557;28;20540;-77
2021/09/21 08:58:03;;;;;;;1.00;0.40;;;;;16.00;100747.00;;;;5066274;28;20041;-76
2021/09/21 09:00:34;;;;;;;1.80;0.50;;;;;16.00;100775.00;;;;5065842;28;20050;-78
2021/09/21 09:03:14;;;;;;;1.35;0.40;;;;;15.90;100767.00;;;;5065456;28;20044;-80
2021/09/21 09:05:48;;;;;;;0.98;0.50;;;;;15.90;100789.00;;;;5069275;28;20414;-78
2021/09/21 09:08:34;;;;;;;2.63;0.70;;;;;15.80;100765.00;;;;5070010;28;20107;-77
2021/09/21 09:11:17;;;;;;;2.25;0.65;;;;;15.70;100783.00;;;;5067153;28;20110;-76
2021/09/21 09:13:55;;;;;;;0.85;0.75;;;;;15.60;100795.00;;;;5068468;28;20045;-76
2021/09/21 09:16:32;;;;;;;0.90;0.35;;;;;15.60;100795.00;;;;5066683;28;20071;-78
2021/09/21 09:19:07;;;;;;;0.30;0.30;;;;;15.60;100812.00;;;;5069129;28;20068;-77
2021/09/21 09:21:40;;;;;;;0.22;0.20;;;;;15.60;100802.00;;;;5068764;28;20155;-76
2021/09/21 09:24:10;;;;;;;1.42;0.60;;;;;15.60;100816.00;;;;5067152;28;20881;-77
2021/09/21 09:26:43;;;;;;;0.80;0.50;;;;;15.50;100821.00;;;;5067878;28;20063;-77
2021/09/21 09:29:16;;;;;;;9.25;2.50;;;;;15.50;100806.00;;;;5068852;28;20045;-77
2021/09/21 09:31:46;;;;;;;32.08;3.00;;;;;15.50;100820.00;;;;5068010;28;20507;-77
2021/09/21 09:34:26;;;;;;;9.07;2.03;;;;;15.50;100833.00;;;;5068091;28;20128;-80
2021/09/21 09:37:02;;;;;;;7.53;1.92;;;;;15.50;100826.00;;;;5068168;28;20132;-78
2021/09/21 09:39:32;;;;;;;8.88;1.75;;;;;15.40;100845.00;;;;5067664;28;20517;-78
2021/09/21 09:42:02;;;;;;;9.90;2.30;;;;;15.40;100853.00;;;;5068091;28;20494;-77
2021/09/21 09:44:33;;;;;;;9.65;2.45;;;;;15.30;100855.00;;;;5067187;28;20052;-77
2021/09/21 09:47:05;;;;;;;10.90;2.30;;;;;15.30;100867.00;;;;5068550;28;20411;-80
2021/09/21 09:49:37;;;;;;;15.50;2.10;;;;;15.30;100852.00;;;;5067414;28;20084;-77
2021/09/21 09:55:18;;;;;;;;;;;;;15.30;100890.00;;;;5054260;28;20162;-80
2021/09/21 09:57:48;;;;;;;6.13;1.55;;;;;15.30;100883.00;;;;5067882;28;20304;-78
2021/09/21 10:00:17;;;;;;;9.75;2.00;;;;;15.20;100894.00;;;;5066431;28;20138;-76
2021/09/21 10:02:47;;;;;;;8.00;1.75;;;;;15.10;100906.00;;;;5067357;28;20503;-76
2021/09/21 10:05:17;;;;;;;7.73;1.73;;;;;15.10;100922.00;;;;5068496;28;20052;-77
2021/09/21 10:07:47;;;;;;;7.72;1.35;;;;;15.00;100910.00;;;;5066919;28;20052;-79
2021/09/21 10:10:17;;;;;;;6.28;1.50;;;;;15.00;100921.00;;;;5066058;28;20048;-80
2021/09/21 10:12:48;;;;;;;8.93;1.73;;;;;15.00;100942.00;;;;5067505;28;20044;-79
2021/09/21 10:15:17;;;;;;;;;;;;;15.00;100942.00;;;;5067327;28;20048;-77
2021/09/21 10:17:53;;;;;;;7.03;1.52;;;;;15.00;100942.00;;;;5064814;28;19924;-79
2021/09/21 10:20:37;;;;;;;8.07;1.50;;;;;15.00;100950.00;;;;5066307;28;20072;-77
2021/09/21 10:23:09;;;;;;;362.75;87.20;;;;;15.00;100948.00;;;;5064937;28;20464;-79
2021/09/21 10:25:43;;;;;;;5.05;3.92;;;;;15.00;100937.00;;;;5066584;28;20142;-78
2021/09/21 10:28:39;;;;;;;5.78;1.45;;;;;14.90;100962.00;;;;5065913;28;20519;-78
2021/09/21 10:31:18;;;;;;;2.88;1.10;;;;;15.00;100961.00;;;;5067741;28;20507;-77
2021/09/21 10:33:49;;;;;;;6.80;1.13;;;;;15.00;100955.00;;;;5067797;28;20041;-79
2021/09/21 10:36:21;;;;;;;3.45;0.90;;;;;14.90;100980.00;;;;5066865;28;20051;-79
2021/09/21 10:38:57;;;;;;;6.03;0.90;;;;;14.90;100994.00;;;;5067950;28;20045;-78
2021/09/21 10:41:27;;;;;;;2.83;0.90;;;;;14.90;100972.00;;;;5066845;28;20048;-75
2021/09/21 10:44:07;;;;;;;2.80;0.70;;;;;15.00;100989.00;;;;5067108;28;20131;-80
2021/09/21 10:46:55;;;;;;;3.90;0.70;;;;;15.00;100992.00;;;;5067327;28;20048;-81
2021/09/21 10:49:29;;;;;;;1.70;0.60;;;;;14.90;101005.00;;;;5065808;28;20825;-80
2021/09/21 10:52:05;;;;;;;3.00;1.08;;;;;14.90;100997.00;;;;5066951;28;20114;-78
2021/09/21 10:54:38;;;;;;;6.57;0.95;;;;;14.90;101019.00;;;;5066923;28;20047;-78
2021/09/21 10:57:10;;;;;;;8.43;1.45;;;;;15.10;101018.00;;;;5066819;28;20519;-77
2021/09/21 10:59:53;;;;;;;5.72;0.88;;;;;15.10;101032.00;;;;5066425;28;20070;-79
2021/09/21 11:02:24;;;;;;;2.90;0.85;;;;;15.10;101014.00;;;;5066577;28;21368;-83
2021/09/21 11:04:58;;;;;;;1.50;0.32;;;;;15.10;101032.00;;;;5066409;28;20052;-77
2021/09/21 11:07:28;;;;;;;1.05;0.40;;;;;15.20;101033.00;;;;5066118;28;20546;-85
2021/09/21 11:09:58;;;;;;;1.35;0.68;;;;;15.20;101020.00;;;;5066929;28;20063;-78
2021/09/21 11:12:27;;;;;;;2.55;1.13;;;;;15.20;101029.00;;;;5066981;28;20518;-81
2021/09/21 11:14:59;;;;;;;3.53;0.90;;;;;15.20;101043.00;;;;5065127;28;20041;-78
2021/09/21 11:17:28;;;;;;;3.85;1.17;;;;;15.20;101036.00;;;;5064707;28;20094;-77
2021/09/21 11:19:58;;;;;;;2.17;0.60;;;;;15.20;101042.00;;;;5066651;28;20044;-78
2021/09/21 11:22:29;;;;;;;3.10;0.70;;;;;15.20;101033.00;;;;5066045;28;20071;-79
2021/09/21 11:25:00;;;;;;;;;;;;;15.30;101054.00;;;;5067064;28;20094;-78
2021/09/21 11:27:30;;;;;;;0.80;0.40;;;;;15.30;101035.00;;;;5065123;28;19969;-78
2021/09/21 11:30:14;;;;;;;4.13;1.10;;;;;15.40;101051.00;;;;5066205;28;20101;-79
2021/09/21 11:32:45;;;;;;;4.43;1.10;;;;;15.60;101043.00;;;;5066305;28;20036;-79
2021/09/21 11:35:17;;;;;;;1.50;0.70;;;;;15.60;101049.00;;;;5066068;28;20048;-78
2021/09/21 11:37:52;;;;;;;3.97;1.25;;;;;15.70;101045.00;;;;5066398;28;20041;-80
2021/09/21 11:40:28;;;;;;;4.25;1.33;;;;;15.60;101054.00;;;;5066238;28;20102;-79
2021/09/21 11:42:59;;;;;;;4.05;0.70;;;;;15.50;101063.00;;;;5064990;28;20393;-78
2021/09/21 11:45:29;;;;;;;6.18;1.15;;;;;15.40;101064.00;;;;5066089;28;20454;-80
2021/09/21 11:47:58;;;;;;;0.10;0.10;;;;;15.40;101054.00;;;;5066473;28;20072;-83
2021/09/21 11:50:30;;;;;;;0.20;0.10;;;;;15.50;101065.00;;;;5065569;28;20040;-76
2021/09/21 11:53:03;;;;;;;0.20;0.10;;;;;15.50;101074.00;;;;5067197;28;20115;-79
2021/09/21 11:55:56;;;;;;;3.00;1.80;;;;;15.70;101075.00;;;;5066094;28;20048;-80
2021/09/21 11:58:31;;;;;;;3.78;0.80;;;;;16.00;101074.00;;;;5065910;28;20040;-80
2021/09/21 12:01:05;;;;;;;2.55;1.00;;;;;16.20;101072.00;;;;5066137;28;20524;-82
2021/09/21 12:03:35;;;;;;;5.20;1.45;;;;;16.10;101070.00;;;;5066256;28;20044;-75
2021/09/21 12:06:05;;;;;;;3.65;1.08;;;;;16.20;101058.00;;;;5065709;28;20040;-78
2021/09/21 12:08:36;;;;;;;2.85;1.00;;;;;16.20;101078.00;;;;5066376;28;20368;-80
2021/09/21 12:11:14;;;;;;;4.82;1.40;;;;;16.30;101058.00;;;;5065776;28;20083;-81
2021/09/21 12:13:48;;;;;;;5.25;3.28;;;;;16.30;101069.00;;;;5065712;28;20434;-82
2021/09/21 12:16:20;;;;;;;9.63;1.90;;;;;16.30;101074.00;;;;5065683;28;20067;-79
2021/09/21 12:18:50;;;;;;;61.50;48.38;;;;;16.40;101085.00;;;;5066008;28;20466;-79
2021/09/21 12:21:20;;;;;;;4.60;2.17;;;;;16.40;101080.00;;;;5065980;28;20044;-82
2021/09/21 12:23:50;;;;;;;2.22;0.93;;;;;16.30;101067.00;;;;5066045;28;20052;-77
2021/09/21 12:26:21;;;;;;;5.32;1.10;;;;;16.30;101096.00;;;;5065337;28;20044;-77
2021/09/21 12:28:52;;;;;;;;;;;;;16.40;101109.00;;;;5067012;28;20048;-82
2021/09/21 12:31:30;;;;;;;3.97;1.05;;;;;16.30;101105.00;;;;5065441;28;19928;-85
2021/09/21 12:34:11;;;;;;;18.98;17.42;;;;;16.20;101095.00;;;;5065870;28;20054;-78
2021/09/21 12:36:44;;;;;;;3.33;1.35;;;;;16.30;101082.00;;;;5065996;28;20048;-79
2021/09/21 12:39:19;;;;;;;5.15;1.42;;;;;16.60;101073.00;;;;5067366;28;20120;-76